createdAt,value
2022-09-04T00:02:44.411Z,79.9
2022-09-04T00:07:40.874Z,80
2022-09-04T00:10:09.188Z,80
2022-09-04T00:12:37.436Z,80
2022-09-04T00:15:05.671Z,80
2022-09-04T00:17:33.941Z,80.2
2022-09-04T00:20:02.199Z,80.6
2022-09-04T00:22:30.442Z,80.5
2022-09-04T00:24:58.727Z,80.6
2022-09-04T00:27:26.982Z,80.6
2022-09-04T00:29:55.266Z,80.8
2022-09-04T00:32:23.475Z,80.8
2022-09-04T00:37:19.973Z,81.1
2022-09-04T00:42:16.506Z,81
2022-09-04T00:43:33.063Z,81.1
2022-09-04T00:49:41.321Z,81.1
2022-09-04T00:52:09.579Z,81.3
2022-09-04T00:54:37.796Z,81.3
2022-09-04T00:57:06.044Z,81.5
2022-09-04T00:59:34.332Z,81.4
2022-09-04T01:02:02.556Z,81.4
2022-09-04T01:04:30.821Z,81.5
2022-09-04T01:06:59.053Z,81.6
2022-09-04T01:08:15.673Z,81.9
2022-09-04T01:09:27.374Z,81.9
2022-09-04T01:11:55.586Z,81.8
2022-09-04T01:14:23.877Z,81.8
2022-09-04T01:16:52.090Z,81.9
2022-09-04T01:19:20.369Z,81.9
2022-09-04T01:26:45.124Z,82.4
2022-09-04T01:29:13.388Z,82.5
2022-09-04T01:31:41.649Z,82.5
2022-09-04T01:32:58.301Z,82.6
2022-09-04T01:34:09.924Z,82.6
2022-09-04T01:39:06.424Z,82.7
2022-09-04T01:41:34.679Z,82.8
2022-09-04T01:44:02.917Z,82.9
2022-09-04T01:48:59.447Z,82.8
2022-09-04T01:53:56.017Z,83.1
2022-09-04T01:56:24.231Z,83
2022-09-04T01:57:40.880Z,82.9
2022-09-04T01:58:52.512Z,82.9
2022-09-04T02:01:20.777Z,82.9
2022-09-04T02:03:49.029Z,83
2022-09-04T02:08:45.512Z,83.4
2022-09-04T02:11:13.801Z,83.4
2022-09-04T02:13:42.039Z,83.5
2022-09-04T02:16:10.333Z,83.4
2022-09-04T02:18:38.530Z,83.4
2022-09-04T02:21:06.799Z,83.4
2022-09-04T02:23:35.036Z,83.7
2022-09-04T02:28:31.581Z,83.9
2022-09-04T02:33:28.120Z,84
2022-09-04T02:35:56.392Z,84.1
2022-09-04T02:38:24.598Z,84.1
2022-09-04T02:40:52.841Z,84.2
2022-09-04T02:43:21.141Z,84.4
2022-09-04T02:45:49.394Z,84.5
2022-09-04T02:47:06.028Z,84.6
2022-09-04T02:48:17.675Z,84.6
2022-09-04T02:53:14.193Z,84.5
2022-09-04T02:55:42.405Z,84.3
2022-09-04T03:00:38.953Z,84.4
2022-09-04T03:03:07.220Z,84.4
2022-09-04T03:05:35.471Z,84.4
2022-09-04T03:08:03.734Z,84.3
2022-09-04T03:10:31.993Z,84.3
2022-09-04T03:11:48.622Z,84.4
2022-09-04T03:13:00.195Z,84.2
2022-09-04T03:15:28.455Z,84.3
2022-09-04T03:17:56.763Z,84.4
2022-09-04T03:20:24.963Z,84.5
2022-09-04T03:22:53.255Z,84.3
2022-09-04T03:25:21.501Z,84.1
2022-09-04T03:32:46.317Z,84.2
2022-09-04T03:35:14.516Z,84.5
2022-09-04T03:36:31.216Z,84.4
2022-09-04T03:37:42.803Z,84.5
2022-09-04T03:40:11.086Z,84.4
2022-09-04T03:42:39.352Z,84.5
2022-09-04T03:47:35.808Z,84.8
2022-09-04T03:50:04.151Z,84.8
2022-09-04T03:52:32.360Z,84.9
2022-09-04T03:55:00.620Z,85.1
2022-09-04T03:57:28.864Z,85.3
2022-09-04T04:01:13.766Z,85.4
2022-09-04T04:02:25.432Z,85.5
2022-09-04T04:04:53.657Z,85.5
2022-09-04T04:09:50.189Z,85.5
2022-09-04T04:14:46.703Z,85.3
2022-09-04T04:17:14.922Z,85.3
2022-09-04T04:19:43.193Z,85.2
2022-09-04T04:27:07.992Z,85.5
2022-09-04T04:29:36.250Z,85.4
2022-09-04T04:32:04.476Z,85.4
2022-09-04T04:34:32.739Z,85.5
2022-09-04T04:39:29.304Z,85.6
2022-09-04T04:41:57.547Z,85.5
2022-09-04T04:44:25.821Z,85.7
2022-09-04T04:46:54.018Z,85.8
2022-09-04T04:49:22.275Z,85.9
2022-09-04T04:50:38.960Z,85.9
2022-09-04T04:51:50.609Z,85.9
2022-09-04T04:54:18.841Z,85.9
2022-09-04T04:59:15.370Z,85.7
2022-09-04T05:01:43.616Z,85.8
2022-09-04T05:04:11.842Z,85.8
2022-09-04T05:06:40.145Z,85.8
2022-09-04T05:09:08.403Z,85.8
2022-09-04T05:15:21.735Z,85.8
2022-09-04T05:16:33.149Z,85.8
2022-09-04T05:19:01.419Z,86
2022-09-04T05:23:57.896Z,86
2022-09-04T05:28:54.459Z,86.2
2022-09-04T05:33:50.963Z,86
2022-09-04T05:36:19.200Z,86.2
2022-09-04T05:38:47.490Z,86.2
2022-09-04T05:40:04.167Z,86.3
2022-09-04T05:41:15.747Z,86.3
2022-09-04T05:43:44.012Z,86.3
2022-09-04T05:46:12.236Z,86.2
2022-09-04T05:48:40.555Z,86.3
2022-09-04T05:53:37.068Z,86.2
2022-09-04T06:01:01.776Z,86
2022-09-04T06:03:30.059Z,86
2022-09-04T06:04:46.731Z,86
2022-09-04T06:08:26.570Z,85.9
2022-09-04T06:13:23.086Z,85.7
2022-09-04T06:15:51.348Z,85.7
2022-09-04T06:18:19.658Z,85.6
2022-09-04T06:23:16.141Z,85.6
2022-09-04T06:30:40.919Z,85.5
2022-09-04T06:33:09.208Z,85.6
2022-09-04T06:38:05.703Z,85.5
2022-09-04T06:40:33.929Z,85.5
2022-09-04T06:45:30.470Z,85.2
2022-09-04T06:47:58.706Z,85.1
2022-09-04T06:50:26.992Z,85.3
2022-09-04T06:52:55.227Z,85.2
2022-09-04T06:54:11.924Z,85.1
2022-09-04T06:55:23.531Z,84.9
2022-09-04T07:00:19.992Z,85.1
2022-09-04T07:02:48.278Z,85
2022-09-04T07:07:44.803Z,84.5
2022-09-04T07:10:13.030Z,84.7
2022-09-04T07:15:09.548Z,84.8
2022-09-04T07:18:54.484Z,84.7
2022-09-04T07:20:06.085Z,84.6
2022-09-04T07:22:34.352Z,84.4
2022-09-04T07:27:30.895Z,83.9
2022-09-04T07:29:59.115Z,83.8
2022-09-04T07:32:27.344Z,83.6
2022-09-04T07:37:23.870Z,83.5
2022-09-04T07:39:52.161Z,83.5
2022-09-04T07:42:20.413Z,83.2
2022-09-04T07:43:37.059Z,83
2022-09-04T07:44:48.665Z,82.8
2022-09-04T07:47:16.941Z,82.5
2022-09-04T07:49:45.221Z,82.8
2022-09-04T07:52:13.443Z,82.5
2022-09-04T07:54:41.725Z,82.3
2022-09-04T07:57:09.952Z,81.9
2022-09-04T08:02:06.446Z,81.8
2022-09-04T08:07:03.023Z,81.4
2022-09-04T08:08:19.646Z,80.9
2022-09-04T08:09:31.298Z,81
2022-09-04T08:14:27.764Z,81
2022-09-04T08:16:56.008Z,80.7
2022-09-04T08:19:24.286Z,79.7
2022-09-04T08:29:17.318Z,80.1
2022-09-04T08:31:45.611Z,79.8
2022-09-04T08:34:13.871Z,79.8
2022-09-04T08:36:42.116Z,79.7
2022-09-04T08:39:10.391Z,79.8
2022-09-04T08:41:38.645Z,79.8
2022-09-04T08:44:06.868Z,79.8
2022-09-04T08:46:35.155Z,79.9
2022-09-04T08:49:03.379Z,79.5
2022-09-04T08:51:31.638Z,79.6
2022-09-04T08:53:59.889Z,79.2
2022-09-04T08:56:28.189Z,78.5
2022-09-04T08:57:44.870Z,78.6
2022-09-04T09:01:24.832Z,78.2
2022-09-04T09:03:53.125Z,78.2
2022-09-04T09:13:46.168Z,76.8
2022-09-04T09:16:14.381Z,76.6
2022-09-04T09:18:42.660Z,76.3
2022-09-04T09:21:10.925Z,76.5
2022-09-04T09:22:27.420Z,76.7
2022-09-04T09:26:07.433Z,76.5
2022-09-04T09:31:03.953Z,74.8
2022-09-04T09:33:32.192Z,74.7
2022-09-04T09:36:00.492Z,74.8
2022-09-04T09:38:28.730Z,74.4
2022-09-04T09:40:56.986Z,74
2022-09-04T09:43:25.241Z,73
2022-09-04T09:45:53.493Z,72.1
2022-09-04T09:47:10.027Z,71.3
2022-09-04T09:48:21.746Z,71.2
2022-09-04T09:50:50.010Z,71
2022-09-04T09:55:46.525Z,71.5
2022-09-04T09:58:14.797Z,71.3
2022-09-04T10:00:43.069Z,70.9
2022-09-04T10:03:11.327Z,71.2
2022-09-04T10:05:39.548Z,71
2022-09-04T10:10:36.072Z,71.2
2022-09-04T10:11:52.614Z,71.3
2022-09-04T10:13:04.319Z,71.5
2022-09-04T10:20:29.132Z,69.5
2022-09-04T10:22:57.355Z,69.2
2022-09-04T10:25:25.639Z,68.8
2022-09-04T10:27:53.897Z,68.4
2022-09-04T10:32:50.404Z,67.9
2022-09-04T10:35:18.644Z,67.6
2022-09-04T10:37:46.934Z,64.9
2022-09-04T10:40:15.164Z,63.6
2022-09-04T10:42:43.447Z,62.9
2022-09-04T10:45:11.704Z,62.3
2022-09-04T10:47:39.975Z,58.9
2022-09-04T10:50:08.219Z,53.5
2022-09-04T10:52:36.474Z,49.2
2022-09-04T10:55:04.756Z,46.5
2022-09-04T10:57:32.984Z,44.4
2022-09-04T11:01:17.828Z,40.8
2022-09-04T11:02:29.526Z,40
2022-09-04T11:04:57.769Z,39.3
2022-09-04T11:07:26.009Z,38.1
2022-09-04T11:09:54.308Z,36.6
2022-09-04T11:12:22.560Z,36.6
2022-09-04T11:14:50.793Z,34.9
2022-09-04T11:17:19.051Z,34.8
2022-09-04T11:19:47.347Z,34.1
2022-09-04T11:22:15.594Z,33.2
2022-09-04T11:24:43.799Z,33.2
2022-09-04T11:26:00.380Z,32.9
2022-09-04T11:27:12.068Z,32.5
2022-09-04T11:29:40.363Z,32.3
2022-09-04T11:32:08.623Z,31.9
2022-09-04T11:37:05.163Z,32.3
2022-09-04T11:39:33.408Z,32.9
2022-09-04T11:42:01.687Z,32.7
2022-09-04T11:46:58.198Z,32.8
2022-09-04T11:49:26.404Z,33
2022-09-04T11:50:43.008Z,34.5
2022-09-04T11:56:51.203Z,34.7
2022-09-04T12:01:47.752Z,35.5
2022-09-04T12:04:16.009Z,34.8
2022-09-04T12:11:40.807Z,38.3
2022-09-04T12:14:09.031Z,40.3
2022-09-04T12:15:25.646Z,42.4
2022-09-04T12:16:37.290Z,43.8
2022-09-04T12:19:05.584Z,44
2022-09-04T12:24:02.065Z,46.2
2022-09-04T12:28:58.592Z,48.6
2022-09-04T12:33:55.111Z,49.5
2022-09-04T12:36:23.381Z,49.9
2022-09-04T12:38:51.626Z,50.4
2022-09-04T12:41:19.872Z,51.1
2022-09-04T12:43:48.140Z,51
2022-09-04T12:46:16.408Z,51.1
2022-09-04T12:48:44.656Z,51.2
2022-09-04T12:53:41.198Z,51.8
2022-09-04T12:56:09.385Z,51.3
2022-09-04T12:58:37.664Z,52
2022-09-04T13:01:05.908Z,51.8
2022-09-04T13:03:34.214Z,51.1
2022-09-04T13:04:50.821Z,50.7
2022-09-04T13:08:30.699Z,51.2
2022-09-04T13:10:58.951Z,52.3
2022-09-04T13:13:27.241Z,52.6
2022-09-04T13:15:55.455Z,53.9
2022-09-04T13:18:23.743Z,53.6
2022-09-04T13:23:20.245Z,50.4
2022-09-04T13:25:48.499Z,50.4
2022-09-04T13:28:16.757Z,49.6
2022-09-04T13:29:33.385Z,49.6
2022-09-04T13:30:45.050Z,50.1
2022-09-04T13:33:13.289Z,50.8
2022-09-04T13:35:41.575Z,50.7
2022-09-04T13:40:38.085Z,51.2
2022-09-04T13:45:34.594Z,51.9
2022-09-04T13:48:02.879Z,51.2
2022-09-04T13:50:31.117Z,51.3
2022-09-04T13:52:59.359Z,52
2022-09-04T13:54:16.001Z,52.1
2022-09-04T13:55:27.659Z,52.1
2022-09-04T13:57:55.854Z,52.1
2022-09-04T14:00:24.142Z,52.2
2022-09-04T14:02:52.398Z,53.2
2022-09-04T14:05:20.696Z,53.6
2022-09-04T14:12:45.449Z,53.5
2022-09-04T14:15:13.683Z,53.4
2022-09-04T14:17:41.954Z,54.9
2022-09-04T14:18:58.609Z,53.4
2022-09-04T14:20:10.259Z,54.2
2022-09-04T14:22:38.517Z,55.4
2022-09-04T14:25:06.766Z,52.7
2022-09-04T14:27:35.022Z,53.3
2022-09-04T14:30:03.216Z,53.4
2022-09-04T14:32:31.537Z,52.4
2022-09-04T14:39:56.310Z,50.4
2022-09-04T14:49:49.366Z,48.5
2022-09-04T14:52:17.628Z,48.8
2022-09-04T14:54:45.844Z,49.3
2022-09-04T14:57:14.119Z,49
2022-09-04T15:02:10.599Z,49.4
2022-09-04T15:04:38.885Z,49.9
2022-09-04T15:08:23.811Z,48.1
2022-09-04T15:09:35.411Z,48.6
2022-09-04T15:12:03.688Z,48.9
2022-09-04T15:17:00.164Z,49.3
2022-09-04T15:19:28.419Z,49.7
2022-09-04T15:21:56.734Z,48.8
2022-09-04T15:24:24.965Z,49.3
2022-09-04T15:26:53.221Z,48.9
2022-09-04T15:29:21.506Z,49.1
2022-09-04T15:31:49.728Z,49.8
2022-09-04T15:33:06.425Z,49.5
2022-09-04T15:34:18.038Z,49.2
2022-09-04T15:36:46.312Z,49.2
2022-09-04T15:39:14.566Z,49.2
2022-09-04T15:41:42.765Z,49
2022-09-04T15:44:11.033Z,49.6
2022-09-04T15:46:39.343Z,49.5
2022-09-04T15:49:07.542Z,49.8
2022-09-04T15:51:35.821Z,49.7
2022-09-04T15:54:04.118Z,49.7
2022-09-04T15:56:32.309Z,50.1
2022-09-04T15:57:49.016Z,49.5
2022-09-04T16:01:28.834Z,49.2
2022-09-04T16:03:57.114Z,49.5
2022-09-04T16:06:25.391Z,49.7
2022-09-04T16:08:53.673Z,48.9
2022-09-04T16:11:21.932Z,49.1
2022-09-04T16:13:50.179Z,49.3
2022-09-04T16:16:18.430Z,48.7
2022-09-04T16:22:31.584Z,50.1
2022-09-04T16:23:43.265Z,49.9
2022-09-04T16:26:11.505Z,50
2022-09-04T16:28:39.753Z,50.6
2022-09-04T16:31:07.979Z,50
2022-09-04T16:33:36.235Z,50
2022-09-04T16:36:04.496Z,49.8
2022-09-04T16:38:32.749Z,49.7
2022-09-04T16:41:00.992Z,49.7
2022-09-04T16:45:57.505Z,49.7
2022-09-04T16:48:25.808Z,50.6
2022-09-04T16:53:22.363Z,50.2
2022-09-04T16:55:50.623Z,50.3
2022-09-04T17:00:47.132Z,50.6
2022-09-04T17:03:15.357Z,50.4
2022-09-04T17:05:43.621Z,50.6
2022-09-04T17:08:11.847Z,50.3
2022-09-04T17:10:40.146Z,50.7
2022-09-04T17:11:56.794Z,51.1
2022-09-04T17:13:08.435Z,50.8
2022-09-04T17:15:36.641Z,50.2
2022-09-04T17:18:04.958Z,51.3
2022-09-04T17:20:33.177Z,50.8
2022-09-04T17:23:01.447Z,51.1
2022-09-04T17:25:29.701Z,52
2022-09-04T17:27:57.983Z,51.6
2022-09-04T17:30:26.241Z,52.4
2022-09-04T17:32:54.469Z,51.6
2022-09-04T17:35:22.738Z,52.8
2022-09-04T17:36:39.423Z,52.2
2022-09-04T17:37:51.029Z,54
2022-09-04T17:40:19.274Z,53.5
2022-09-04T17:42:47.504Z,53
2022-09-04T17:45:15.794Z,53.4
2022-09-04T17:57:37.068Z,53.1
2022-09-04T18:00:05.321Z,54.7
2022-09-04T18:01:21.996Z,55.3
2022-09-04T18:02:33.651Z,54.8
2022-09-04T18:05:01.888Z,54.8
2022-09-04T18:07:30.109Z,55.9
2022-09-04T18:12:26.647Z,56.8
2022-09-04T18:14:54.920Z,56.8
2022-09-04T18:17:23.135Z,56.9
2022-09-04T18:19:51.435Z,58
2022-09-04T18:26:04.605Z,58.3
2022-09-04T18:32:12.708Z,57.8
2022-09-04T18:37:09.220Z,58.3
2022-09-04T18:39:37.481Z,58
2022-09-04T18:42:05.790Z,58.8
2022-09-04T18:44:34.017Z,58.9
2022-09-04T18:51:58.858Z,59.2
2022-09-04T18:54:27.053Z,59.3
2022-09-04T18:56:55.353Z,59.6
2022-09-04T18:59:23.559Z,59.7
2022-09-04T19:01:51.815Z,59.9
2022-09-04T19:04:20.079Z,59.6
2022-09-04T19:06:48.355Z,59.9
2022-09-04T19:09:16.591Z,60
2022-09-04T19:11:44.846Z,60.1
2022-09-04T19:14:13.133Z,60.4
2022-09-04T19:15:29.786Z,60.3
2022-09-04T19:16:41.420Z,60.8
2022-09-04T19:19:09.677Z,61.1
2022-09-04T19:21:37.947Z,61
2022-09-04T19:24:06.156Z,61.4
2022-09-04T19:29:02.711Z,62.1
2022-09-04T19:31:30.928Z,62.2
2022-09-04T19:33:59.193Z,61.9
2022-09-04T19:36:27.449Z,62.7
2022-09-04T19:40:12.373Z,62.9
2022-09-04T19:41:24.028Z,62.7
2022-09-04T19:43:52.237Z,62.9
2022-09-04T19:48:48.760Z,63
2022-09-04T19:51:17.014Z,62.9
2022-09-04T19:53:45.316Z,63.1
2022-09-04T19:56:13.540Z,63.1
2022-09-04T19:58:41.824Z,63.7
2022-09-04T20:03:38.340Z,63.3
2022-09-04T20:04:55.009Z,63.6
2022-09-04T20:06:06.612Z,63.7
2022-09-04T20:08:34.841Z,63.6
2022-09-04T20:11:03.116Z,63.1
2022-09-04T20:13:31.408Z,63.6
2022-09-04T20:18:27.923Z,64
2022-09-04T20:23:24.413Z,64
2022-09-04T20:28:20.929Z,63.7
2022-09-04T20:30:49.235Z,64.5
2022-09-04T20:35:45.703Z,63.9
2022-09-04T20:38:13.985Z,64.6
2022-09-04T20:40:42.198Z,64.7
2022-09-04T20:43:10.471Z,64.5
2022-09-04T20:45:38.740Z,64.3
2022-09-04T20:50:35.290Z,64.7
2022-09-04T20:53:03.519Z,65.3
2022-09-04T20:55:31.795Z,65.4
2022-09-04T20:58:00.091Z,65.7
2022-09-04T21:00:28.307Z,65.3
2022-09-04T21:02:56.565Z,65.5
2022-09-04T21:05:24.831Z,65.8
2022-09-04T21:07:53.051Z,65.7
2022-09-04T21:10:21.313Z,65.8
2022-09-04T21:12:49.614Z,65.7
2022-09-04T21:17:46.095Z,66.4
2022-09-04T21:19:02.759Z,65.5
2022-09-04T21:20:14.362Z,66
2022-09-04T21:22:42.652Z,66.4
2022-09-04T21:27:39.162Z,66.4
2022-09-04T21:32:35.674Z,66.6
2022-09-04T21:37:32.210Z,66.6
2022-09-04T21:40:00.464Z,66.7
2022-09-04T21:42:28.716Z,67
2022-09-04T21:43:45.357Z,66.9
2022-09-04T21:44:56.987Z,67.1
2022-09-04T21:47:25.254Z,67.2
2022-09-04T21:49:53.533Z,67.2
2022-09-04T21:52:21.747Z,66.9
2022-09-04T21:54:49.993Z,67.3
2022-09-04T21:57:18.287Z,67.2
2022-09-04T21:59:46.555Z,67.8
2022-09-04T22:02:14.794Z,67.8
2022-09-04T22:04:43.097Z,67.9
2022-09-04T22:07:11.342Z,67.4
2022-09-04T22:08:27.971Z,67.6
2022-09-04T22:09:39.597Z,67.8
2022-09-04T22:14:36.112Z,67.5
2022-09-04T22:17:04.343Z,67.4
2022-09-04T22:19:32.595Z,67.5
2022-09-04T22:22:00.904Z,68
2022-09-04T22:24:29.144Z,68.2
2022-09-04T22:26:57.369Z,68.1
2022-09-04T22:29:25.678Z,68.3
2022-09-04T22:31:53.943Z,68.7
2022-09-04T22:33:10.600Z,68.8
2022-09-04T22:34:22.192Z,69
2022-09-04T22:36:50.444Z,68.8
2022-09-04T22:41:46.940Z,69.2
2022-09-04T22:44:15.237Z,68.8
2022-09-04T22:46:43.473Z,69.2
2022-09-04T22:49:11.787Z,69.3
2022-09-04T22:51:39.979Z,69.3
2022-09-04T22:54:08.256Z,69.1
2022-09-04T22:56:36.483Z,69.1
2022-09-04T22:57:53.190Z,69.2
2022-09-04T23:01:33.054Z,69.3
2022-09-04T23:04:01.300Z,69.6
2022-09-04T23:06:29.587Z,69.3
2022-09-04T23:08:57.822Z,69.5
2022-09-04T23:11:26.104Z,69.9
2022-09-04T23:16:22.607Z,70.1
2022-09-04T23:18:50.834Z,70.3
2022-09-04T23:21:19.130Z,70.9
2022-09-04T23:22:35.790Z,70.9
2022-09-04T23:23:47.339Z,71
2022-09-04T23:26:15.646Z,71.1
2022-09-04T23:31:12.133Z,71.4
2022-09-04T23:33:40.384Z,71.7
2022-09-04T23:36:08.646Z,71.9
2022-09-04T23:38:36.927Z,72.3
2022-09-04T23:41:05.196Z,71.8
2022-09-04T23:43:33.465Z,71.5
2022-09-04T23:46:01.666Z,71.9
2022-09-04T23:47:18.350Z,71.8
2022-09-04T23:48:29.942Z,71.4
2022-09-04T23:53:26.454Z,71.6
2022-09-04T23:55:54.704Z,71.6
2022-09-04T23:58:23.020Z,71.7
